Time;durP1;ratioP1;P1;durP2;ratioP2;P2;SDS_P1;SDS_P2;PMS_P1;PMS_P2;Temp;Humidity;BMP_temperature;BMP_pressure;BME280_temperature;BME280_humidity;BME280_pressure;Samples;Min_cycle;Max_cycle;Signal;HPM_P1;HPM_P2
2023/06/02 00:01:04;;;;;;;;;9.00;8.00;;;;;18.29;52.18;101474.34;6244024;22;45310;-75
2023/06/02 00:03:36;;;;;;;;;11.25;9.25;;;;;18.21;52.56;101484.69;6246119;22;45421;-75
2023/06/02 00:06:05;;;;;;;;;10.50;10.00;;;;;18.02;52.68;101473.97;6246304;22;45502;-75
2023/06/02 00:08:32;;;;;;;;;11.50;10.00;;;;;18.00;53.18;101479.44;6244426;22;45363;-75
2023/06/02 00:10:58;;;;;;;;;5.75;5.00;;;;;17.97;53.80;101482.31;6246485;22;45196;-75
2023/06/02 00:13:24;;;;;;;;;10.00;10.00;;;;;17.93;53.88;101483.44;6246478;22;45950;-75
2023/06/02 00:15:50;;;;;;;;;11.75;9.75;;;;;17.74;53.85;101453.75;6245790;22;45315;-75
2023/06/02 00:18:15;;;;;;;;;10.00;9.00;;;;;17.85;53.93;101480.22;6246331;22;45518;-75
2023/06/02 00:20:41;;;;;;;;;10.25;10.25;;;;;17.81;53.78;101484.00;6246365;22;45393;-75
2023/06/02 00:23:10;;;;;;;;;11.50;10.50;;;;;17.80;53.97;101484.97;6246374;22;45239;-75
2023/06/02 00:25:41;;;;;;;;;10.25;10.25;;;;;17.74;53.99;101484.34;6244049;22;45285;-75
2023/06/02 00:28:07;;;;;;;;;12.00;9.50;;;;;17.75;54.44;101475.28;6246113;22;45523;-75
2023/06/02 00:30:36;;;;;;;;;12.75;12.75;;;;;17.75;54.64;101483.38;6243833;22;45863;-75
2023/06/02 00:33:01;;;;;;;;;10.25;10.00;;;;;17.70;54.30;101484.56;6245852;22;46401;-75
2023/06/02 00:35:27;;;;;;;;;15.50;12.25;;;;;17.59;53.99;101475.19;6246436;22;45189;-75
2023/06/02 00:37:53;;;;;;;;;9.50;6.75;;;;;17.59;54.60;101485.97;6242382;22;45317;-75
2023/06/02 00:40:19;;;;;;;;;13.75;12.25;;;;;17.54;53.83;101485.34;6245886;22;45393;-75
2023/06/02 00:42:44;;;;;;;;;10.25;10.00;;;;;17.48;54.67;101477.53;6246492;22;45769;-75
2023/06/02 00:45:10;;;;;;;;;10.00;10.00;;;;;17.34;54.54;101466.53;6246269;22;45256;-75
2023/06/02 00:47:35;;;;;;;;;13.00;13.00;;;;;17.29;55.14;101472.19;6243965;22;45332;-75
2023/06/02 00:50:01;;;;;;;;;12.00;11.00;;;;;17.23;54.69;101476.03;6245747;22;45543;-75
2023/06/02 00:52:28;;;;;;;;;14.00;12.50;;;;;17.13;55.48;101463.94;6245206;22;46120;-75
2023/06/02 00:54:57;;;;;;;;;13.25;13.00;;;;;17.20;55.34;101481.56;6246107;22;45198;-75
2023/06/02 00:57:28;;;;;;;;;10.50;10.50;;;;;17.22;55.78;101481.50;6247202;22;45267;-75
2023/06/02 00:59:55;;;;;;;;;14.75;11.50;;;;;17.23;55.25;101467.94;6243973;22;45428;-75
2023/06/02 01:02:21;;;;;;;;;13.75;13.75;;;;;17.30;55.52;101479.31;6247426;22;45321;-75
2023/06/02 01:04:47;;;;;;;;;17.00;16.25;;;;;17.25;55.33;101467.88;6247240;22;45193;-75
2023/06/02 01:07:13;;;;;;;;;13.50;12.25;;;;;17.22;55.34;101465.31;6246735;22;45338;-75
2023/06/02 01:09:40;;;;;;;;;15.50;12.75;;;;;17.15;55.30;101458.47;6245901;22;45293;-75
2023/06/02 01:12:06;;;;;;;;;13.50;12.75;;;;;17.05;55.82;101449.97;6247335;22;45354;-75
2023/06/02 01:14:32;;;;;;;;;16.25;16.00;;;;;17.13;55.74;101473.88;6246852;22;45449;-75
2023/06/02 01:16:57;;;;;;;;;17.25;15.25;;;;;17.05;55.38;101474.22;6245841;22;53647;-75
2023/06/02 01:19:25;;;;;;;;;14.75;11.75;;;;;16.96;56.04;101472.84;6243952;22;59771;-75
2023/06/02 01:21:59;;;;;;;;;13.50;13.50;;;;;17.02;56.16;101483.38;6246779;22;46216;-75
2023/06/02 01:24:35;;;;;;;;;18.00;16.50;;;;;16.92;56.09;101463.16;6247108;22;45319;-75
2023/06/02 01:27:05;;;;;;;;;16.25;15.00;;;;;16.75;55.85;101449.56;6246846;22;45251;-75
2023/06/02 01:29:35;;;;;;;;;14.75;13.25;;;;;16.88;56.43;101477.75;6247128;22;45318;-75
2023/06/02 01:32:05;;;;;;;;;17.75;16.00;;;;;16.93;56.31;101478.38;6246908;22;45949;-75
2023/06/02 01:34:40;;;;;;;;;14.50;14.50;;;;;16.96;56.11;101482.78;6247473;22;45447;-75
2023/06/02 01:37:07;;;;;;;;;16.50;15.00;;;;;16.94;56.43;101479.25;6270781;22;45380;-75
2023/06/02 01:39:33;;;;;;;;;16.00;14.75;;;;;16.93;56.16;101481.09;6247121;22;45352;-75
2023/06/02 01:42:01;;;;;;;;;17.50;16.50;;;;;16.94;56.27;101482.84;6246913;22;45336;-75
2023/06/02 01:44:27;;;;;;;;;16.00;14.75;;;;;16.91;56.49;101479.44;6247149;22;45340;-75
2023/06/02 01:46:53;;;;;;;;;14.50;14.50;;;;;16.85;56.61;101477.88;6246848;22;45324;-75
2023/06/02 01:49:18;;;;;;;;;17.25;15.25;;;;;16.89;56.41;101475.91;6245519;22;45292;-75
2023/06/02 01:51:45;;;;;;;;;17.25;16.75;;;;;16.94;56.14;101482.84;6246233;22;45921;-75
2023/06/02 01:54:10;;;;;;;;;20.00;19.00;;;;;16.82;56.57;101472.59;6247193;22;45512;-75
2023/06/02 01:56:36;;;;;;;;;20.50;16.75;;;;;16.76;56.53;101467.50;6245653;22;45415;-75
2023/06/02 01:59:02;;;;;;;;;18.50;17.00;;;;;16.75;56.77;101476.53;6247310;22;45414;-75
2023/06/02 02:01:27;;;;;;;;;16.75;14.75;;;;;16.67;56.60;101464.28;6246693;22;45488;-75
2023/06/02 02:03:53;;;;;;;;;19.50;19.00;;;;;16.75;56.59;101473.84;6245767;22;45413;-75
2023/06/02 02:06:24;;;;;;;;;19.25;19.25;;;;;16.60;56.68;101470.88;6247100;22;45331;-75
2023/06/02 02:08:50;;;;;;;;;22.25;21.00;;;;;16.50;56.34;101472.25;6246153;22;45385;-75
2023/06/02 02:11:15;;;;;;;;;21.00;20.00;;;;;16.38;56.88;101457.53;6246219;22;46486;-75
2023/06/02 02:13:40;;;;;;;;;20.50;20.50;;;;;16.35;57.11;101471.13;6246676;22;45406;-75
2023/06/02 02:16:05;;;;;;;;;16.00;14.50;;;;;16.38;57.14;101486.31;6247158;22;45307;-74
2023/06/02 02:18:31;;;;;;;;;22.50;21.75;;;;;16.29;57.34;101482.22;6245860;22;54718;-75
2023/06/02 02:20:57;;;;;;;;;26.75;23.00;;;;;16.23;57.77;101488.72;6246604;22;45887;-75
2023/06/02 02:23:22;;;;;;;;;23.75;20.00;;;;;16.15;57.73;101488.19;6246868;22;45550;-75
2023/06/02 02:25:47;;;;;;;;;24.00;23.25;;;;;16.10;57.63;101487.50;6246380;22;45439;-75
2023/06/02 02:28:13;;;;;;;;;20.50;19.00;;;;;16.06;57.91;101494.00;6246044;22;58189;-74
2023/06/02 02:30:38;;;;;;;;;18.25;17.00;;;;;16.06;57.90;101497.53;6245806;22;48755;-74
2023/06/02 02:33:03;;;;;;;;;20.00;19.50;;;;;16.08;57.92;101492.09;6247231;22;45215;-74
2023/06/02 02:35:28;;;;;;;;;17.25;14.75;;;;;15.99;57.95;101488.00;6247201;22;45278;-75
2023/06/02 02:37:54;;;;;;;;;12.50;12.00;;;;;16.02;57.68;101493.25;6246747;22;45393;-74
2023/06/02 02:40:19;;;;;;;;;23.00;21.50;;;;;15.89;57.80;101502.78;6245594;22;53082;-75
2023/06/02 02:42:45;;;;;;;;;24.75;20.25;;;;;15.82;58.46;101491.41;6246591;22;45247;-75
2023/06/02 02:45:10;;;;;;;;;21.50;21.00;;;;;15.74;58.48;101499.75;6246745;22;45448;-74
2023/06/02 02:47:35;;;;;;;;;23.50;21.00;;;;;15.72;58.07;101496.28;6246348;22;45386;-74
2023/06/02 02:50:01;;;;;;;;;22.50;20.00;;;;;15.60;58.52;101480.59;6246693;22;45251;-75
2023/06/02 02:52:27;;;;;;;;;15.50;15.50;;;;;15.65;58.61;101493.88;6244646;22;45432;-75
2023/06/02 02:54:52;;;;;;;;;25.00;16.50;;;;;15.59;58.67;101495.03;6246620;22;45263;-74
2023/06/02 02:57:17;;;;;;;;;18.25;16.75;;;;;15.55;59.07;101494.28;6246580;22;45284;-74
2023/06/02 02:59:43;;;;;;;;;23.50;21.00;;;;;15.61;58.85;101508.41;6246218;22;45402;-74
2023/06/02 03:02:09;;;;;;;;;26.50;21.75;;;;;15.56;58.86;101505.91;6246863;22;45455;-74
2023/06/02 03:04:35;;;;;;;;;21.25;21.00;;;;;15.36;58.54;101498.66;6247000;22;45358;-74
2023/06/02 03:07:01;;;;;;;;;18.75;16.75;;;;;15.30;59.29;101509.66;6244065;22;46650;-75
2023/06/02 03:09:27;;;;;;;;;22.50;21.50;;;;;15.27;59.24;101507.06;6245861;22;46161;-75
2023/06/02 03:11:53;;;;;;;;;21.00;19.75;;;;;15.19;59.87;101508.25;6246994;22;45299;-75
2023/06/02 03:14:18;;;;;;;;;28.50;23.75;;;;;15.22;59.20;101506.38;6246767;22;45374;-75
2023/06/02 03:16:46;;;;;;;;;24.50;23.00;;;;;15.04;59.94;101484.69;6246496;22;45521;-74
2023/06/02 03:19:13;;;;;;;;;21.00;20.00;;;;;15.16;59.96;101503.00;6244510;22;47118;-75
2023/06/02 03:21:42;;;;;;;;;21.00;17.25;;;;;15.16;59.83;101505.69;6246870;22;45422;-75
2023/06/02 03:24:12;;;;;;;;;21.25;19.25;;;;;15.22;59.79;101509.97;6247033;22;45392;-75
2023/06/02 03:26:40;;;;;;;;;23.50;20.25;;;;;15.19;59.74;101502.88;6244626;22;45294;-74
2023/06/02 03:29:09;;;;;;;;;20.75;19.25;;;;;15.26;59.59;101499.97;6246131;22;46077;-74
2023/06/02 03:31:35;;;;;;;;;14.00;14.00;;;;;15.24;59.43;101502.72;6246984;22;45460;-74
2023/06/02 03:34:02;;;;;;;;;19.75;17.50;;;;;15.36;59.59;101514.78;6246943;22;45267;-74
2023/06/02 03:36:28;;;;;;;;;22.25;20.00;;;;;15.30;59.39;101517.72;6245756;22;45647;-74
2023/06/02 03:38:53;;;;;;;;;22.50;22.00;;;;;15.10;59.53;101503.28;6246610;22;45255;-75
2023/06/02 03:41:18;;;;;;;;;23.50;21.00;;;;;15.11;59.83;101509.50;6245466;22;56426;-75
2023/06/02 03:43:44;;;;;;;;;20.75;18.25;;;;;14.96;59.93;101506.47;6246711;22;45323;-75
2023/06/02 03:46:09;;;;;;;;;22.75;22.75;;;;;14.93;59.62;101497.66;6246952;22;45329;-75
2023/06/02 03:48:35;;;;;;;;;21.75;18.50;;;;;14.87;60.37;101503.25;6245797;22;45913;-75
2023/06/02 03:51:00;;;;;;;;;19.75;19.00;;;;;14.88;60.84;101513.94;6245717;22;45381;-75
2023/06/02 03:53:25;;;;;;;;;23.50;22.00;;;;;14.84;61.05;101514.16;6244516;22;45320;-75
2023/06/02 03:55:51;;;;;;;;;21.25;17.50;;;;;14.88;60.35;101513.94;6270456;22;45303;-75
2023/06/02 03:58:17;;;;;;;;;18.25;16.75;;;;;14.92;60.60;101517.44;6244159;22;48184;-75
2023/06/02 04:00:42;;;;;;;;;23.50;22.00;;;;;14.88;60.27;101513.09;6246158;22;45338;-75
2023/06/02 04:03:09;;;;;;;;;19.50;19.50;;;;;14.94;60.31;101520.91;6246922;22;45252;-74
2023/06/02 04:05:34;;;;;;;;;28.00;23.00;;;;;14.95;60.14;101522.66;6246383;22;45425;-75
2023/06/02 04:08:00;;;;;;;;;21.00;21.00;;;;;14.96;60.37;101524.41;6246268;22;45271;-75
2023/06/02 04:10:28;;;;;;;;;18.25;16.25;;;;;14.93;60.68;101521.84;6246115;22;45310;-75
2023/06/02 04:12:53;;;;;;;;;20.00;18.75;;;;;14.76;59.73;101495.63;6244214;22;45563;-75
2023/06/02 04:15:18;;;;;;;;;25.00;24.75;;;;;14.77;60.29;101505.44;6244024;22;45261;-75
2023/06/02 04:17:43;;;;;;;;;23.25;22.25;;;;;14.72;60.55;101505.59;6245651;22;56796;-75
2023/06/02 04:20:09;;;;;;;;;24.75;22.75;;;;;14.78;60.56;101524.19;6245664;22;48961;-75
2023/06/02 04:22:35;;;;;;;;;23.50;23.25;;;;;14.75;60.32;101524.31;6243465;22;45353;-75
2023/06/02 04:25:00;;;;;;;;;24.25;21.50;;;;;14.61;60.55;101518.56;6244951;22;45551;-76
2023/06/02 04:27:26;;;;;;;;;25.25;24.25;;;;;14.61;60.19;101510.50;6246074;22;45942;-75
2023/06/02 04:29:51;;;;;;;;;22.75;19.75;;;;;14.67;60.59;101521.03;6243778;22;50079;-75
2023/06/02 04:32:17;;;;;;;;;24.00;24.00;;;;;14.54;60.88;101503.56;6245974;22;45244;-75
2023/06/02 04:34:42;;;;;;;;;25.00;24.25;;;;;14.59;60.47;101515.94;6246130;22;48938;-75
2023/06/02 04:37:07;;;;;;;;;29.50;26.25;;;;;14.63;60.89;101525.66;6269837;22;47030;-75
2023/06/02 04:39:35;;;;;;;;;23.75;22.50;;;;;14.59;60.79;101523.13;6245871;22;45418;-75
2023/06/02 04:42:00;;;;;;;;;21.25;21.25;;;;;14.48;60.91;101520.78;6243963;22;45314;-75
2023/06/02 04:44:26;;;;;;;;;23.25;21.75;;;;;14.52;60.67;101518.88;6246078;22;45455;-75
2023/06/02 04:46:51;;;;;;;;;31.75;28.50;;;;;14.61;60.92;101526.63;6245309;22;49525;-75
2023/06/02 04:49:16;;;;;;;;;23.00;22.75;;;;;14.62;60.81;101526.56;6246152;22;45247;-76
2023/06/02 04:51:42;;;;;;;;;23.25;23.00;;;;;14.74;60.91;101535.13;6246007;22;45188;-75
2023/06/02 04:54:07;;;;;;;;;27.75;26.50;;;;;14.72;60.52;101524.41;6244428;22;55562;-76
2023/06/02 04:56:35;;;;;;;;;25.50;22.50;;;;;14.71;60.57;101527.16;6243360;22;48545;-72
2023/06/02 04:59:00;;;;;;;;;33.75;28.50;;;;;14.73;60.19;101542.28;6245671;22;45593;-71
2023/06/02 05:01:28;;;;;;;;;24.00;21.75;;;;;14.53;60.84;101521.47;6246107;22;45317;-71
2023/06/02 05:03:53;;;;;;;;;27.50;23.75;;;;;14.54;61.07;101542.06;6245676;22;45260;-72
2023/06/02 05:06:19;;;;;;;;;22.00;21.50;;;;;14.55;61.04;101521.44;6242648;22;46934;-72
2023/06/02 05:08:44;;;;;;;;;29.75;29.00;;;;;14.63;60.75;101531.00;6244376;22;45309;-72
2023/06/02 05:11:09;;;;;;;;;21.75;21.00;;;;;14.65;60.80;101528.28;6244501;22;45225;-71
2023/06/02 05:13:35;;;;;;;;;28.50;25.75;;;;;14.74;60.51;101535.97;6245762;22;45399;-72
2023/06/02 05:16:02;;;;;;;;;24.25;20.00;;;;;14.67;60.75;101523.72;6245575;22;45483;-71
2023/06/02 05:18:28;;;;;;;;;26.50;23.75;;;;;14.73;60.45;101536.03;6244924;22;45271;-72
2023/06/02 05:20:54;;;;;;;;;29.50;26.00;;;;;14.82;60.31;101544.63;6245481;22;45263;-71
2023/06/02 05:23:19;;;;;;;;;25.75;25.25;;;;;14.71;60.00;101528.03;6246024;22;46045;-71
2023/06/02 05:25:48;;;;;;;;;25.25;22.25;;;;;14.74;60.06;101538.66;6242938;22;47398;-71
2023/06/02 05:28:13;;;;;;;;;24.75;24.75;;;;;14.71;59.82;101543.28;6244855;22;45291;-71
2023/06/02 05:30:39;;;;;;;;;25.00;24.25;;;;;14.62;60.10;101536.44;6242805;22;45670;-73
2023/06/02 05:33:05;;;;;;;;;24.25;21.50;;;;;14.53;60.20;101531.34;6242858;22;45654;-72
2023/06/02 05:35:30;;;;;;;;;28.25;24.50;;;;;14.51;60.21;101527.84;6242309;22;47062;-71
2023/06/02 05:37:56;;;;;;;;;25.75;25.00;;;;;14.57;60.42;101546.44;6244190;22;45278;-72
2023/06/02 05:40:21;;;;;;;;;23.75;22.00;;;;;14.49;60.77;101519.00;6244639;22;45544;-72
2023/06/02 05:42:47;;;;;;;;;21.25;21.25;;;;;14.64;60.24;101539.94;6243082;22;45197;-72
2023/06/02 05:45:12;;;;;;;;;26.75;24.00;;;;;14.50;60.10;101528.78;6245616;22;45288;-72
2023/06/02 05:47:38;;;;;;;;;27.50;24.00;;;;;14.60;60.09;101531.13;6246585;22;45248;-73
2023/06/02 05:50:05;;;;;;;;;32.00;28.00;;;;;14.66;59.77;101532.69;6246412;22;45371;-71
2023/06/02 05:52:30;;;;;;;;;27.00;24.25;;;;;14.52;59.95;101508.13;6245014;22;45335;-71
2023/06/02 05:54:56;;;;;;;;;21.75;21.75;;;;;14.64;60.09;101543.50;6219226;22;47182;-71
2023/06/02 05:57:21;;;;;;;;;25.75;23.25;;;;;14.73;60.10;101536.91;6246985;22;45366;-71
2023/06/02 05:59:46;;;;;;;;;29.25;28.25;;;;;14.60;60.14;101506.03;6246603;22;45739;-71
2023/06/02 06:02:12;;;;;;;;;29.00;25.25;;;;;14.82;59.44;101527.63;6246498;22;45310;-72
2023/06/02 06:04:41;;;;;;;;;30.75;29.25;;;;;14.89;59.50;101533.66;6244407;22;46888;-70
2023/06/02 06:07:06;;;;;;;;;27.00;25.50;;;;;14.88;59.56;101529.22;6243112;22;45423;-72
2023/06/02 06:09:31;;;;;;;;;28.25;26.50;;;;;14.86;59.33;101528.41;6246228;22;45506;-70
2023/06/02 06:11:57;;;;;;;;;32.25;29.75;;;;;14.93;59.12;101546.03;6246397;22;45177;-72
2023/06/02 06:14:22;;;;;;;;;29.00;23.75;;;;;14.72;59.26;101512.81;6246585;22;45249;-72
2023/06/02 06:16:47;;;;;;;;;31.25;28.75;;;;;14.84;58.97;101549.09;6243997;22;53123;-72
2023/06/02 06:19:13;;;;;;;;;28.75;26.00;;;;;14.71;59.18;101516.41;6246231;22;45544;-72
2023/06/02 06:21:38;;;;;;;;;31.00;29.00;;;;;14.70;58.93;101517.34;6246748;22;45233;-72
2023/06/02 06:24:07;;;;;;;;;31.50;30.75;;;;;14.72;59.19;101527.09;6246958;22;46104;-71
2023/06/02 06:26:35;;;;;;;;;30.75;28.75;;;;;14.68;59.00;101517.38;6245076;22;45403;-71
2023/06/02 06:29:01;;;;;;;;;34.00;31.25;;;;;14.86;59.00;101547.22;6246776;22;45320;-71
2023/06/02 06:31:26;;;;;;;;;33.25;30.25;;;;;14.77;59.15;101541.25;6269420;22;45338;-71
2023/06/02 06:33:52;;;;;;;;;35.50;32.00;;;;;14.68;59.57;101528.13;6246941;22;45388;-71
2023/06/02 06:36:17;;;;;;;;;34.50;32.00;;;;;14.86;59.66;101553.47;6244840;22;45187;-71
2023/06/02 06:38:43;;;;;;;;;30.00;29.50;;;;;14.64;59.61;101521.13;6270831;22;45315;-71
2023/06/02 06:41:11;;;;;;;;;31.25;28.25;;;;;14.80;59.58;101545.63;6246666;22;45240;-72
2023/06/02 06:43:38;;;;;;;;;38.25;31.25;;;;;14.79;59.35;101528.63;6244496;22;46888;-71
2023/06/02 06:46:04;;;;;;;;;33.50;31.00;;;;;14.63;59.37;101505.94;6246341;22;45419;-73
2023/06/02 06:48:29;;;;;;;;;41.00;33.00;;;;;14.68;59.66;101505.78;6244878;22;45367;-72
2023/06/02 06:50:55;;;;;;;;;30.75;27.75;;;;;14.96;59.66;101546.78;6245536;22;45192;-75
2023/06/02 06:53:20;;;;;;;;;31.00;30.75;;;;;14.97;59.66;101535.13;6244267;22;48343;-75
2023/06/02 06:55:47;;;;;;;;;31.50;30.75;;;;;14.77;59.32;101503.63;6246598;22;45291;-75
2023/06/02 06:58:12;;;;;;;;;38.25;33.25;;;;;15.09;59.51;101554.41;6244469;22;45376;-76
2023/06/02 07:00:38;;;;;;;;;35.50;33.75;;;;;15.16;59.08;101548.72;6244383;22;45305;-75
2023/06/02 07:03:03;;;;;;;;;31.75;30.25;;;;;15.08;59.23;101537.38;6244626;22;46892;-75
2023/06/02 07:05:29;;;;;;;;;27.00;27.00;;;;;15.22;59.06;101549.41;6243392;22;45185;-75
2023/06/02 07:07:54;;;;;;;;;33.75;30.50;;;;;15.26;58.98;101554.63;6244550;22;45325;-75
2023/06/02 07:10:20;;;;;;;;;30.75;27.25;;;;;15.24;58.88;101550.25;6246279;22;45362;-75
2023/06/02 07:12:48;;;;;;;;;35.75;30.25;;;;;15.30;58.79;101561.66;6245809;22;46629;-75
2023/06/02 07:15:14;;;;;;;;;38.00;29.50;;;;;15.08;58.98;101526.63;6245513;22;45386;-75
2023/06/02 07:17:41;;;;;;;;;28.50;28.00;;;;;15.32;58.63;101557.09;6244350;22;45325;-75
2023/06/02 07:20:10;;;;;;;;;37.25;33.25;;;;;15.31;58.44;101546.38;6246345;22;45412;-75
2023/06/02 07:22:36;;;;;;;;;31.00;27.25;;;;;15.40;58.52;101553.19;6244365;22;46144;-75
2023/06/02 07:25:03;;;;;;;;;26.75;25.00;;;;;15.39;58.37;101555.03;6246312;22;45311;-75
2023/06/02 07:27:29;;;;;;;;;26.75;26.25;;;;;15.26;58.29;101519.66;6246507;22;45334;-75
2023/06/02 07:29:54;;;;;;;;;31.50;28.75;;;;;15.34;58.00;101538.19;6246257;22;45203;-75
2023/06/02 07:32:19;;;;;;;;;33.75;29.50;;;;;15.41;58.17;101544.22;6245680;22;45220;-75
2023/06/02 07:34:45;;;;;;;;;22.25;21.50;;;;;15.42;58.50;101543.25;6244218;22;45308;-75
2023/06/02 07:37:10;;;;;;;;;30.25;29.00;;;;;15.37;58.28;101527.31;6244827;22;45177;-75
2023/06/02 07:39:35;;;;;;;;;29.00;25.00;;;;;15.30;57.94;101509.66;6244352;22;45207;-74
2023/06/02 07:42:01;;;;;;;;;27.25;26.25;;;;;15.56;57.71;101562.41;6245589;22;46753;-75
2023/06/02 07:44:26;;;;;;;;;31.00;27.00;;;;;15.53;57.91;101554.47;6244136;22;46206;-75
2023/06/02 07:46:52;;;;;;;;;30.75;27.75;;;;;15.51;58.02;101535.69;6246481;22;45244;-75
2023/06/02 07:49:17;;;;;;;;;27.00;22.25;;;;;15.57;57.71;101537.28;6246472;22;45461;-75
2023/06/02 07:51:42;;;;;;;;;25.00;22.75;;;;;15.68;57.77;101556.53;6246251;22;45262;-75
2023/06/02 07:54:08;;;;;;;;;20.00;20.00;;;;;15.53;57.76;101520.34;6244163;22;45483;-75
2023/06/02 07:56:33;;;;;;;;;26.50;24.50;;;;;15.75;57.42;101554.47;6246511;22;45432;-75
2023/06/02 07:58:58;;;;;;;;;20.50;20.50;;;;;15.82;57.14;101557.81;6243798;22;45598;-75
2023/06/02 08:01:24;;;;;;;;;25.75;23.25;;;;;15.92;56.92;101557.38;6245371;22;45406;-75
2023/06/02 08:03:49;;;;;;;;;24.50;23.50;;;;;15.80;56.79;101551.63;6244405;22;45423;-72
2023/06/02 08:06:15;;;;;;;;;21.00;18.25;;;;;15.86;56.77;101567.53;6243841;22;45280;-75
2023/06/02 08:08:40;;;;;;;;;20.75;19.50;;;;;15.85;57.06;101566.63;6243037;22;45694;-76
2023/06/02 08:11:06;;;;;;;;;26.00;22.75;;;;;15.71;56.71;101539.41;6245560;22;46370;-75
2023/06/02 08:13:31;;;;;;;;;22.75;19.25;;;;;15.82;57.08;101555.13;6244133;22;45348;-75
2023/06/02 08:15:57;;;;;;;;;16.75;16.25;;;;;15.77;56.44;101531.09;6245239;22;45432;-75
2023/06/02 08:18:23;;;;;;;;;17.75;17.25;;;;;15.95;56.57;101559.06;6244174;22;45450;-75
2023/06/02 08:20:48;;;;;;;;;16.50;16.50;;;;;15.95;56.42;101542.03;6245955;22;46084;-74
2023/06/02 08:23:13;;;;;;;;;19.75;18.50;;;;;16.03;56.24;101538.06;6243907;22;45438;-74
2023/06/02 08:25:40;;;;;;;;;22.25;18.00;;;;;16.03;56.16;101532.69;6244354;22;45610;-75
2023/06/02 08:28:06;;;;;;;;;20.75;17.25;;;;;16.13;55.76;101559.22;6245367;22;45420;-74
2023/06/02 08:30:41;;;;;;;;;19.25;18.75;;;;;16.03;55.68;101531.81;6246226;22;45439;-76
2023/06/02 08:33:10;;;;;;;;;21.50;19.50;;;;;16.00;55.47;101507.72;6269554;22;45205;-72
2023/06/02 08:35:39;;;;;;;;;14.75;14.25;;;;;16.11;55.77;101516.22;6218922;22;45458;-75
2023/06/02 08:38:07;;;;;;;;;20.00;19.25;;;;;16.28;55.33;101528.94;6245278;22;45501;-74
2023/06/02 08:40:37;;;;;;;;;17.00;15.00;;;;;16.41;55.59;101540.94;6243596;22;46107;-74
2023/06/02 08:43:04;;;;;;;;;14.50;12.75;;;;;16.33;55.54;101517.97;6243353;22;45825;-74
2023/06/02 08:45:30;;;;;;;;;16.25;15.75;;;;;16.56;55.44;101542.06;6243616;22;45397;-74
2023/06/02 08:47:57;;;;;;;;;16.75;16.00;;;;;16.59;55.01;101528.47;6245616;22;45570;-75
2023/06/02 08:50:25;;;;;;;;;17.25;14.75;;;;;16.68;54.73;101541.50;6245962;22;45340;-74
2023/06/02 08:52:55;;;;;;;;;15.00;15.00;;;;;16.80;54.79;101533.81;6245486;22;45429;-74
2023/06/02 08:55:21;;;;;;;;;19.00;15.75;;;;;16.80;54.75;101523.88;6245571;22;45359;-73
2023/06/02 08:57:46;;;;;;;;;14.25;13.50;;;;;16.89;54.60;101525.34;6243607;22;45282;-74
2023/06/02 09:00:15;;;;;;;;;17.75;16.75;;;;;16.85;53.72;101497.63;6242986;22;47183;-71
2023/06/02 09:02:40;;;;;;;;;21.00;20.75;;;;;16.88;53.65;101498.44;6245239;22;45311;-76
2023/06/02 09:05:07;;;;;;;;;19.75;18.50;;;;;16.90;53.63;101504.63;6246049;22;45382;-75
2023/06/02 09:07:33;;;;;;;;;18.50;18.00;;;;;16.91;53.44;101507.25;6245249;22;46150;-75
2023/06/02 09:09:58;;;;;;;;;15.50;15.50;;;;;16.83;53.44;101488.69;6245433;22;45304;-75
2023/06/02 09:12:23;;;;;;;;;20.50;19.75;;;;;16.83;53.72;101480.59;6246023;22;45513;-75
2023/06/02 09:15:08;;;;;;;;;20.75;19.00;;;;;17.15;53.42;101523.22;6245243;22;45622;-75
2023/06/02 09:17:33;;;;;;;;;20.50;18.50;;;;;17.09;53.37;101510.03;6245420;22;45288;-75
2023/06/02 09:20:12;;;;;;;;;20.00;19.00;;;;;17.12;53.12;101513.44;6244353;22;47904;-75
2023/06/02 09:23:01;;;;;;;;;20.00;19.00;;;;;17.04;53.24;101503.03;6243968;22;45519;-75
2023/06/02 09:25:28;;;;;;;;;23.75;21.50;;;;;16.99;53.00;101488.91;6225922;22;45295;-74
2023/06/02 09:27:56;;;;;;;;;20.50;17.75;;;;;17.22;52.98;101521.97;6246094;22;45347;-74
2023/06/02 09:30:22;;;;;;;;;23.00;20.75;;;;;17.18;52.69;101505.06;6246441;22;45669;-74
2023/06/02 09:33:14;;;;;;;;;24.25;22.00;;;;;17.39;52.80;101530.16;6246922;22;45314;-75
2023/06/02 09:35:42;;;;;;;;;24.50;22.50;;;;;17.43;52.83;101528.19;6254579;22;45399;-74
2023/06/02 09:38:13;;;;;;;;;19.25;18.75;;;;;17.41;52.44;101517.44;6244423;22;45400;-76
2023/06/02 09:40:40;;;;;;;;;24.25;24.00;;;;;17.46;52.78;101521.72;6246061;22;45408;-75
2023/06/02 09:43:07;;;;;;;;;14.25;14.25;;;;;17.35;52.38;101498.84;6246133;22;45211;-74
2023/06/02 09:45:33;;;;;;;;;18.25;16.75;;;;;17.48;52.39;101509.06;6246858;22;45302;-73
2023/06/02 09:47:59;;;;;;;;;21.75;20.00;;;;;17.40;52.42;101488.69;6246373;22;45460;-75
2023/06/02 09:50:32;;;;;;;;;19.50;18.25;;;;;17.59;51.91;101523.78;6246354;22;46508;-75
2023/06/02 09:53:06;;;;;;;;;19.25;18.50;;;;;17.56;51.86;101520.38;6243932;22;45233;-75
2023/06/02 09:55:33;;;;;;;;;20.75;20.75;;;;;17.50;52.27;101491.81;6246720;22;45458;-75
2023/06/02 09:58:00;;;;;;;;;20.25;17.50;;;;;17.58;52.02;101494.16;6245590;22;45239;-74
2023/06/02 10:00:26;;;;;;;;;16.50;16.50;;;;;17.53;52.14;101472.78;6243113;22;47504;-75
2023/06/02 10:02:52;;;;;;;;;16.00;14.75;;;;;17.78;51.15;101506.66;6244109;22;45326;-75
2023/06/02 10:05:19;;;;;;;;;17.25;17.00;;;;;17.67;51.51;101493.69;6246072;22;45321;-75
2023/06/02 10:07:47;;;;;;;;;22.50;19.00;;;;;17.85;51.36;101524.28;6245873;22;45466;-75
2023/06/02 10:10:16;;;;;;;;;19.75;19.75;;;;;17.82;51.72;101510.94;6243428;22;46690;-75
2023/06/02 10:13:12;;;;;;;;;23.00;20.50;;;;;17.85;51.34;101518.03;6245930;22;45406;-76
2023/06/02 10:16:03;;;;;;;;;21.25;18.25;;;;;17.81;51.82;101508.31;6246235;22;45359;-76
2023/06/02 10:18:44;;;;;;;;;21.00;19.00;;;;;17.87;51.31;101511.59;6217275;22;45517;-76
2023/06/02 10:21:47;;;;;;;;;24.00;20.50;;;;;17.97;51.15;101506.63;6244057;22;47089;-75
2023/06/02 10:24:37;;;;;;;;;19.50;19.00;;;;;18.05;51.18;101512.50;6246711;22;45269;-76
2023/06/02 10:27:16;;;;;;;;;25.50;22.75;;;;;17.98;51.22;101480.50;6245875;22;45256;-76
2023/06/02 10:29:42;;;;;;;;;22.75;21.50;;;;;17.95;51.23;101470.72;6243537;22;45553;-75
2023/06/02 10:32:25;;;;;;;;;20.00;19.50;;;;;18.03;50.95;101478.44;6246138;22;45453;-76
2023/06/02 10:34:51;;;;;;;;;20.75;20.75;;;;;18.20;50.60;101504.56;6246159;22;45454;-76
2023/06/02 10:37:18;;;;;;;;;21.50;19.50;;;;;18.19;50.95;101508.22;6246174;22;45304;-76
2023/06/02 10:39:43;;;;;;;;;18.25;17.75;;;;;18.28;51.04;101507.75;6246181;22;45487;-75
2023/06/02 10:42:13;;;;;;;;;18.00;18.00;;;;;18.19;51.07;101482.06;6246483;22;45381;-76
2023/06/02 10:44:39;;;;;;;;;23.50;21.50;;;;;18.23;50.68;101463.88;6245876;22;45464;-76
2023/06/02 10:47:17;;;;;;;;;27.00;24.50;;;;;18.42;50.16;101494.34;6245812;22;45327;-76
2023/06/02 10:49:58;;;;;;;;;24.75;21.50;;;;;18.44;50.57;101500.56;6243753;22;45518;-76
2023/06/02 10:52:27;;;;;;;;;21.25;18.75;;;;;18.41;50.15;101489.91;6245409;22;45475;-76
2023/06/02 10:55:07;;;;;;;;;24.00;22.50;;;;;18.59;49.92;101495.28;6245092;22;45558;-76
2023/06/02 10:57:53;;;;;;;;;19.25;19.25;;;;;18.63;50.26;101488.75;6245617;22;45308;-76
2023/06/02 11:00:39;;;;;;;;;17.00;16.00;;;;;18.66;49.56;101491.28;6244327;22;45602;-75
2023/06/02 11:03:22;;;;;;;;;19.25;17.75;;;;;18.68;49.87;101490.25;6245930;22;45342;-77
2023/06/02 11:05:54;;;;;;;;;20.75;18.75;;;;;18.50;49.70;101461.50;6243745;22;45380;-77
2023/06/02 11:08:21;;;;;;;;;17.50;17.00;;;;;18.70;49.76;101490.16;6244793;22;45467;-72
2023/06/02 11:11:00;;;;;;;;;21.00;18.50;;;;;18.62;49.90;101465.38;6245715;22;45343;-76